createdAt,value
2022-10-15T00:05:45.379Z,100606.99
2022-10-15T00:15:47.434Z,100605.43
2022-10-15T00:25:49.387Z,100609.04
2022-10-15T00:35:59.567Z,100605.11
2022-10-15T00:46:01.653Z,100598.30
2022-10-15T00:56:04.713Z,100590.30
2022-10-15T01:06:06.988Z,100583.59
2022-10-15T01:16:08.936Z,100578.66
2022-10-15T01:26:47.563Z,100575.05
2022-10-15T01:37:04.236Z,100570.27
2022-10-15T01:47:14.557Z,100569.42
2022-10-15T01:57:19.405Z,100561.42
2022-10-15T02:07:27.540Z,100556.19
2022-10-15T02:17:41.919Z,100549.27
2022-10-15T02:27:47.922Z,100539.80
2022-10-15T02:37:53.652Z,100531.73
2022-10-15T02:47:55.825Z,100530.89
2022-10-15T02:57:59.160Z,100524.85
2022-10-15T03:08:01.270Z,100522.68
2022-10-15T03:18:05.332Z,100523.80
2022-10-15T03:28:07.539Z,100521.52
2022-10-15T03:38:12.414Z,100523.42
2022-10-15T03:48:14.787Z,100522.64
2022-10-15T03:58:16.974Z,100523.67
2022-10-15T04:08:24.968Z,100516.98
2022-10-15T04:18:27.666Z,100502.42
2022-10-15T04:28:30.872Z,100503.34
2022-10-15T04:38:32.985Z,100495.08
2022-10-15T04:48:40.358Z,100489.95
2022-10-15T04:58:47.658Z,100483.72
2022-10-15T05:08:50.152Z,100486.73
2022-10-15T05:19:00.207Z,100493.30
2022-10-15T05:29:02.971Z,100495.94
2022-10-15T05:39:10.482Z,100484.19
2022-10-15T05:49:16.461Z,100486.75
2022-10-15T05:59:40.547Z,100489.98
2022-10-15T06:09:42.740Z,100502.33
2022-10-15T06:19:45.084Z,100500.48
2022-10-15T06:29:47.809Z,100499.95
2022-10-15T06:39:49.752Z,100507.20
2022-10-15T06:49:51.894Z,100521.59
2022-10-15T06:59:54.590Z,100521.16
2022-10-15T07:09:57.204Z,100526.86
2022-10-15T07:20:02.871Z,100531.82
2022-10-15T07:30:07.876Z,100535.67
2022-10-15T07:40:10.445Z,100533.50
2022-10-15T07:50:14.004Z,100532.15
2022-10-15T08:00:16.460Z,100539.61
2022-10-15T08:10:18.995Z,100528.18
2022-10-15T08:20:21.224Z,100530.02
2022-10-15T08:30:26.096Z,100527.30
2022-10-15T08:40:29.907Z,100518.61
2022-10-15T08:50:47.453Z,100511.88
2022-10-15T09:00:56.757Z,100514.66
2022-10-15T09:11:07.991Z,100510.13
2022-10-15T09:21:11.809Z,100503.34
2022-10-15T09:31:18.040Z,100496.58
2022-10-15T09:42:14.309Z,100494.98
2022-10-15T09:52:55.478Z,100495.77
2022-10-15T10:03:14.441Z,100496.10
2022-10-15T10:13:26.387Z,100495.61
2022-10-15T10:23:39.738Z,100491.52
2022-10-15T10:33:48.307Z,100482.24
2022-10-15T10:43:55.740Z,100481.31
2022-10-15T10:53:59.667Z,100478.30
2022-10-15T11:04:02.493Z,100467.98
2022-10-15T11:14:22.199Z,100470.09
2022-10-15T11:25:06.142Z,100461.05
2022-10-15T11:35:48.273Z,100454.77
2022-10-15T11:46:09.599Z,100452.94
2022-10-15T11:56:21.110Z,100443.44
2022-10-15T12:06:36.298Z,100442.64
2022-10-15T12:17:16.230Z,100446.88
2022-10-15T12:27:24.806Z,100447.47
2022-10-15T12:37:29.516Z,100442.61
2022-10-15T12:48:03.788Z,100434.59
2022-10-15T12:58:27.543Z,100433.98
2022-10-15T13:08:32.044Z,100438.41
2022-10-15T13:18:34.025Z,100439.34
2022-10-15T13:28:39.049Z,100440.45
2022-10-15T13:38:46.508Z,100428.55
2022-10-15T13:48:49.331Z,100437.36
2022-10-15T13:58:52.081Z,100434.75
2022-10-15T14:08:57.202Z,100441.95
2022-10-15T14:19:10.200Z,100445.48
2022-10-15T14:29:27.680Z,100439.86
2022-10-15T14:39:35.664Z,100443.00
2022-10-15T14:49:40.624Z,100445.78
2022-10-15T14:59:43.627Z,100448.62
2022-10-15T15:09:50.170Z,100457.71
2022-10-15T15:19:54.811Z,100455.39
2022-10-15T15:29:57.946Z,100455.17
2022-10-15T15:39:59.907Z,100459.07
2022-10-15T15:50:01.850Z,100468.70
2022-10-15T16:00:06.473Z,100471.00
2022-10-15T16:10:13.586Z,100478.14
2022-10-15T16:20:15.638Z,100481.27
2022-10-15T16:30:20.643Z,100482.86
2022-10-15T16:40:23.521Z,100482.84
2022-10-15T16:50:25.640Z,100500.89
2022-10-15T17:00:27.871Z,100508.80
2022-10-15T17:10:29.993Z,100523.94
2022-10-15T17:20:35.371Z,100532.67
2022-10-15T17:30:38.270Z,100536.53
2022-10-15T17:40:40.956Z,100541.22
2022-10-15T17:50:45.387Z,100545.66
2022-10-15T18:00:57.424Z,100548.81
2022-10-15T18:10:59.987Z,100553.09
2022-10-15T18:21:09.205Z,100554.11
2022-10-15T18:31:13.694Z,100554.09
2022-10-15T18:41:21.580Z,100569.08
2022-10-15T18:51:27.827Z,100565.99
2022-10-15T19:01:39.068Z,100576.41
2022-10-15T19:11:45.309Z,100580.25
2022-10-15T19:21:48.900Z,100586.98
2022-10-15T19:31:52.746Z,100598.71
2022-10-15T19:41:55.375Z,100601.60
2022-10-15T19:51:57.781Z,100607.48
2022-10-15T20:02:00.037Z,100619.32
2022-10-15T20:12:02.699Z,100625.72
2022-10-15T20:22:04.770Z,100636.48
2022-10-15T20:32:16.929Z,100646.16
2022-10-15T20:42:30.163Z,100648.66
2022-10-15T20:52:34.163Z,100651.21
2022-10-15T21:02:36.271Z,100654.55
2022-10-15T21:12:38.967Z,100658.91
2022-10-15T21:22:40.995Z,100667.50
2022-10-15T21:32:43.302Z,100680.67
2022-10-15T21:42:45.294Z,100691.23
2022-10-15T21:52:48.219Z,100703.80
2022-10-15T22:02:51.952Z,100706.41
2022-10-15T22:12:54.058Z,100705.69
2022-10-15T22:22:56.068Z,100716.20
2022-10-15T22:32:58.186Z,100715.75
2022-10-15T22:43:00.389Z,100718.81
2022-10-15T22:53:02.565Z,100725.04
2022-10-15T23:03:04.843Z,100729.61
2022-10-15T23:13:07.226Z,100730.25
2022-10-15T23:23:09.275Z,100728.52
2022-10-15T23:33:11.435Z,100729.90
2022-10-15T23:43:13.354Z,100725.21
2022-10-15T23:53:15.382Z,100727.20
